Time;durP1;ratioP1;P1;durP2;ratioP2;P2;SDS_P1;SDS_P2;PMS_P1;PMS_P2;Temp;Humidity;BMP_temperature;BMP_pressure;BME280_temperature;BME280_humidity;BME280_pressure;Samples;Min_cycle;Max_cycle;Signal;HPM_P1;HPM_P2
2024/01/24 00:00:16;;;;;;;;;;;;;;;6.54;100.00;97376.53;5066680;28;19938;-68
2024/01/24 00:02:42;;;;;;;;;;;;;;;6.59;100.00;97389.88;5067177;28;19939;-69
2024/01/24 00:05:08;;;;;;;;;;;;;;;6.61;100.00;97390.50;5066581;28;20120;-69
2024/01/24 00:07:34;;;;;;;;;;;;;;;6.63;100.00;97385.13;5067332;28;20005;-70
2024/01/24 00:10:00;;;;;;;;;;;;;;;6.63;100.00;97367.69;5066537;28;20276;-70
2024/01/24 00:12:26;;;;;;;;;;;;;;;6.66;100.00;97366.56;5066629;28;19936;-70
2024/01/24 00:14:52;;;;;;;;;;;;;;;6.69;100.00;97361.00;5066949;28;19936;-71
2024/01/24 00:17:17;;;;;;;;;;;;;;;6.74;100.00;97365.69;5066180;28;19952;-72
2024/01/24 00:19:43;;;;;;;;;;;;;;;6.76;100.00;97351.53;5066473;28;19946;-71
2024/01/24 00:22:11;;;;;;;;;;;;;;;6.78;100.00;97341.72;5066793;28;19933;-71
2024/01/24 00:24:37;;;;;;;;;;;;;;;6.83;100.00;97315.16;5066263;28;19945;-70
2024/01/24 00:27:03;;;;;;;;;;;;;;;6.86;100.00;97315.59;5066185;28;20230;-80
2024/01/24 00:29:29;;;;;;;;;;;;;;;6.86;100.00;97310.38;5066190;28;20278;-70
2024/01/24 00:31:55;;;;;;;;;;;;;;;6.87;100.00;97313.81;5066604;28;19943;-71
2024/01/24 00:34:21;;;;;;;;;;;;;;;6.81;100.00;97294.47;5066103;28;19942;-71
2024/01/24 00:36:49;;;;;;;;;;;;;;;6.77;100.00;97282.75;5065938;28;20032;-71
2024/01/24 00:39:15;;;;;;;;;;;;;;;6.72;100.00;97285.06;5066240;28;19937;-71
2024/01/24 00:41:41;;;;;;;;;;;;;;;6.66;100.00;97270.13;5065955;28;20238;-71
2024/01/24 00:44:07;;;;;;;;;;;;;;;6.62;100.00;97280.06;5065869;28;19948;-71
2024/01/24 00:46:33;;;;;;;;;;;;;;;6.60;100.00;97274.22;5066363;28;20127;-71
2024/01/24 00:48:59;;;;;;;;;;;;;;;6.58;100.00;97278.78;5048105;28;20086;-71
2024/01/24 00:51:25;;;;;;;;;;;;;;;6.57;100.00;97294.59;5065738;28;19940;-71
2024/01/24 00:53:53;;;;;;;;;;;;;;;6.57;100.00;97292.78;5066214;28;19938;-71
2024/01/24 00:56:20;;;;;;;;;;;;;;;6.58;100.00;97293.63;5048497;28;19940;-71
2024/01/24 00:58:46;;;;;;;;;;;;;;;6.56;100.00;97275.53;5065550;28;19939;-71
2024/01/24 01:01:12;;;;;;;;;;;;;;;6.58;100.00;97265.75;5065499;28;20133;-71
2024/01/24 01:03:38;;;;;;;;;;;;;;;6.59;100.00;97272.59;5065501;28;19941;-70
2024/01/24 01:06:04;;;;;;;;;;;;;;;6.61;100.00;97273.22;5065414;28;19935;-69
2024/01/24 01:08:30;;;;;;;;;;;;;;;6.63;100.00;97268.66;5065637;28;20146;-68
2024/01/24 01:10:56;;;;;;;;;;;;;;;6.64;100.00;97266.88;5066135;28;19930;-70
2024/01/24 01:13:22;;;;;;;;;;;;;;;6.63;100.00;97275.66;5065352;28;19948;-69
2024/01/24 01:15:48;;;;;;;;;;;;;;;6.61;100.00;97256.78;5065242;28;19939;-70
2024/01/24 01:18:14;;;;;;;;;;;;;;;6.60;100.00;97270.81;5065099;28;19962;-69
2024/01/24 01:20:40;;;;;;;;;;;;;;;6.68;100.00;97266.34;5065209;28;19940;-69
2024/01/24 01:23:06;;;;;;;;;;;;;;;6.86;100.00;97255.63;5065625;28;19938;-73
2024/01/24 01:25:31;;;;;;;;;;;;;;;7.04;100.00;97246.72;5064801;28;19937;-71
2024/01/24 01:27:57;;;;;;;;;;;;;;;7.14;100.00;97241.22;5064323;28;19941;-72
2024/01/24 01:30:23;;;;;;;;;;;;;;;7.20;100.00;97230.94;5064971;28;19935;-72
2024/01/24 01:32:49;;;;;;;;;;;;;;;7.30;100.00;97228.03;5064944;28;19943;-72
2024/01/24 01:35:16;;;;;;;;;;;;;;;7.37;100.00;97222.94;5064838;28;20225;-72
2024/01/24 01:37:42;;;;;;;;;;;;;;;7.42;100.00;97220.59;5064777;28;19959;-72
2024/01/24 01:40:08;;;;;;;;;;;;;;;7.44;100.00;97227.25;5064764;28;19932;-72
2024/01/24 01:42:34;;;;;;;;;;;;;;;7.43;100.00;97224.81;5065283;28;19943;-71
2024/01/24 01:45:00;;;;;;;;;;;;;;;7.46;100.00;97235.72;5064737;28;19935;-71
2024/01/24 01:47:26;;;;;;;;;;;;;;;7.47;100.00;97239.94;5065396;28;19996;-71
2024/01/24 01:49:52;;;;;;;;;;;;;;;7.46;100.00;97225.28;5064624;28;19935;-71
2024/01/24 01:52:19;;;;;;;;;;;;;;;7.50;100.00;97220.53;5064510;28;19938;-71
2024/01/24 01:54:46;;;;;;;;;;;;;;;7.50;100.00;97223.94;5064537;28;19931;-71
2024/01/24 01:57:14;;;;;;;;;;;;;;;7.52;100.00;97219.34;5063851;28;19956;-71
2024/01/24 01:59:43;;;;;;;;;;;;;;;7.55;100.00;97214.75;5064456;28;19936;-70
2024/01/24 02:02:10;;;;;;;;;;;;;;;7.57;100.00;97216.19;5065178;28;19936;-71
2024/01/24 02:04:36;;;;;;;;;;;;;;;7.56;100.00;97216.38;5065200;28;19958;-72
2024/01/24 02:07:02;;;;;;;;;;;;;;;7.55;100.00;97205.13;5064767;28;19932;-72
2024/01/24 02:09:28;;;;;;;;;;;;;;;7.52;100.00;97231.59;5064270;28;19934;-72
2024/01/24 02:11:54;;;;;;;;;;;;;;;7.49;100.00;97221.50;5064735;28;20083;-72
2024/01/24 02:14:20;;;;;;;;;;;;;;;7.51;100.00;97237.78;5064480;28;19935;-72
2024/01/24 02:16:46;;;;;;;;;;;;;;;7.53;100.00;97247.06;5064658;28;19933;-72
2024/01/24 02:19:11;;;;;;;;;;;;;;;7.52;100.00;97234.22;5063941;28;19969;-69
2024/01/24 02:21:37;;;;;;;;;;;;;;;7.52;100.00;97216.75;5064064;28;20220;-68
2024/01/24 02:24:22;;;;;;;;;;;;;;;7.51;100.00;97214.31;5064799;28;20043;-69
2024/01/24 02:26:48;;;;;;;;;;;;;;;7.52;100.00;97216.75;5046941;28;20125;-69
2024/01/24 02:29:14;;;;;;;;;;;;;;;7.55;100.00;97218.19;5046306;28;19932;-69
2024/01/24 02:31:40;;;;;;;;;;;;;;;7.57;100.00;97218.00;5064493;28;19944;-68
2024/01/24 02:34:06;;;;;;;;;;;;;;;7.62;100.00;97218.25;5063884;28;19937;-69
2024/01/24 02:36:31;;;;;;;;;;;;;;;7.66;100.00;97216.91;5063832;28;20197;-72
2024/01/24 02:38:57;;;;;;;;;;;;;;;7.66;100.00;97212.50;5063765;28;19960;-69
2024/01/24 02:41:23;;;;;;;;;;;;;;;7.65;100.00;97205.66;5064332;28;19935;-71
2024/01/24 02:43:49;;;;;;;;;;;;;;;7.64;100.00;97198.84;5063807;28;19993;-71
2024/01/24 02:46:15;;;;;;;;;;;;;;;7.63;100.00;97202.44;5064289;28;19964;-71
2024/01/24 02:48:41;;;;;;;;;;;;;;;7.64;100.00;97200.63;5064021;28;19937;-71
2024/01/24 02:51:06;;;;;;;;;;;;;;;7.67;100.00;97211.53;5063686;28;19944;-71
2024/01/24 02:53:32;;;;;;;;;;;;;;;7.72;100.00;97210.97;5063734;28;19937;-71
2024/01/24 02:55:58;;;;;;;;;;;;;;;7.76;100.00;97201.00;5064479;28;20230;-71
2024/01/24 02:58:24;;;;;;;;;;;;;;;7.75;100.00;97194.13;5064219;28;20175;-72
2024/01/24 03:00:50;;;;;;;;;;;;;;;7.75;100.00;97192.34;5063893;28;20248;-72
2024/01/24 03:03:16;;;;;;;;;;;;;;;7.71;100.00;97191.91;5064406;28;19931;-72
2024/01/24 03:05:42;;;;;;;;;;;;;;;7.69;100.00;97187.84;5063660;28;19930;-72
2024/01/24 03:08:07;;;;;;;;;;;;;;;7.70;100.00;97186.84;5063895;28;19947;-72
2024/01/24 03:10:33;;;;;;;;;;;;;;;7.66;100.00;97183.78;5064387;28;20127;-72
2024/01/24 03:12:59;;;;;;;;;;;;;;;7.64;100.00;97182.34;5064330;28;20198;-72
2024/01/24 03:15:25;;;;;;;;;;;;;;;7.63;100.00;97184.16;5063834;28;19961;-70
2024/01/24 03:17:51;;;;;;;;;;;;;;;7.67;100.00;97193.25;5063656;28;20255;-68
2024/01/24 03:20:17;;;;;;;;;;;;;;;7.69;100.00;97206.13;5063465;28;19940;-69
2024/01/24 03:22:43;;;;;;;;;;;;;;;7.71;100.00;97209.38;5063452;28;19946;-69
2024/01/24 03:25:11;;;;;;;;;;;;;;;7.72;100.00;97213.59;5064221;28;20104;-69
2024/01/24 03:27:37;;;;;;;;;;;;;;;7.79;100.00;97222.34;5063645;28;19936;-68
2024/01/24 03:30:03;;;;;;;;;;;;;;;7.86;100.00;97211.97;5063372;28;20108;-69
2024/01/24 03:32:29;;;;;;;;;;;;;;;7.86;100.00;97199.72;5063888;28;19941;-75
2024/01/24 03:34:56;;;;;;;;;;;;;;;7.86;100.00;97196.31;5064091;28;19936;-68
2024/01/24 03:37:22;;;;;;;;;;;;;;;7.86;100.00;97194.50;5063794;28;19964;-68
2024/01/24 03:39:48;;;;;;;;;;;;;;;7.83;100.00;97197.47;5063240;28;19944;-68
2024/01/24 03:42:14;;;;;;;;;;;;;;;7.82;100.00;97192.44;5063264;28;19941;-68
2024/01/24 03:44:40;;;;;;;;;;;;;;;7.79;100.00;97195.41;5064059;28;20077;-68
2024/01/24 03:47:06;;;;;;;;;;;;;;;7.77;100.00;97192.97;5064156;28;19984;-69
2024/01/24 03:49:32;;;;;;;;;;;;;;;7.76;100.00;97195.78;5066903;28;19935;-71
2024/01/24 03:51:58;;;;;;;;;;;;;;;7.72;100.00;97203.16;5067603;28;19989;-71
2024/01/24 03:54:23;;;;;;;;;;;;;;;7.75;100.00;97194.13;5066845;28;19983;-68
2024/01/24 03:56:49;;;;;;;;;;;;;;;7.78;100.00;97191.97;5067160;28;19943;-68
2024/01/24 03:59:15;;;;;;;;;;;;;;;7.80;100.00;97190.00;5066707;28;19934;-68
2024/01/24 04:01:42;;;;;;;;;;;;;;;7.86;100.00;97201.53;5066679;28;19941;-68
2024/01/24 04:04:08;;;;;;;;;;;;;;;7.91;100.00;97202.59;5067372;28;19932;-69
2024/01/24 04:06:35;;;;;;;;;;;;;;;8.03;100.00;97194.28;5067346;28;19944;-69
2024/01/24 04:09:03;;;;;;;;;;;;;;;8.12;100.00;97211.47;5066492;28;20242;-72
2024/01/24 04:11:29;;;;;;;;;;;;;;;8.16;100.00;97210.13;5067318;28;20102;-68
2024/01/24 04:13:56;;;;;;;;;;;;;;;8.21;100.00;97209.56;5066988;28;19933;-69
2024/01/24 04:16:22;;;;;;;;;;;;;;;8.26;100.00;97208.03;5066356;28;19943;-68
2024/01/24 04:18:52;;;;;;;;;;;;;;;8.27;100.00;97212.28;5066303;28;19979;-69
2024/01/24 04:21:18;;;;;;;;;;;;;;;8.29;100.00;97217.28;5066260;28;19941;-68
2024/01/24 04:23:44;;;;;;;;;;;;;;;8.28;100.00;97228.75;5066802;28;19946;-68
2024/01/24 04:26:09;;;;;;;;;;;;;;;8.28;100.00;97226.13;5066211;28;19935;-71
2024/01/24 04:28:35;;;;;;;;;;;;;;;8.29;100.00;97225.97;5066311;28;19938;-71
2024/01/24 04:31:01;;;;;;;;;;;;;;;8.32;100.00;97235.25;5066104;28;19974;-69
2024/01/24 04:33:27;;;;;;;;;;;;;;;8.34;100.00;97238.47;5066070;28;19983;-69
2024/01/24 04:35:55;;;;;;;;;;;;;;;8.34;100.00;97251.53;5066480;28;19951;-69
2024/01/24 04:38:21;;;;;;;;;;;;;;;8.36;100.00;97238.28;5048749;28;19960;-69
2024/01/24 04:40:47;;;;;;;;;;;;;;;8.40;100.00;97257.81;5065942;28;19935;-69
2024/01/24 04:43:13;;;;;;;;;;;;;;;8.41;100.00;97257.69;5065876;28;19940;-69
2024/01/24 04:45:39;;;;;;;;;;;;;;;8.43;100.00;97266.16;5065878;28;19937;-68
2024/01/24 04:48:06;;;;;;;;;;;;;;;8.44;100.00;97274.78;5065821;28;19938;-71
2024/01/24 04:50:32;;;;;;;;;;;;;;;8.44;100.00;97280.00;5065344;28;19947;-70
2024/01/24 04:52:58;;;;;;;;;;;;;;;8.48;100.00;97286.50;5066274;28;19934;-71
2024/01/24 04:55:23;;;;;;;;;;;;;;;8.49;100.00;97282.91;5065683;28;19944;-71
2024/01/24 04:57:49;;;;;;;;;;;;;;;8.49;100.00;97288.94;5066329;28;20001;-71
2024/01/24 05:00:15;;;;;;;;;;;;;;;8.50;100.00;97287.97;5064323;28;19937;-70
2024/01/24 05:02:41;;;;;;;;;;;;;;;8.52;100.00;97275.50;5065530;28;19933;-71
2024/01/24 05:05:07;;;;;;;;;;;;;;;8.53;100.00;97258.81;5065462;28;19941;-76
2024/01/24 05:07:34;;;;;;;;;;;;;;;8.53;100.00;97268.47;5065403;28;19999;-72
2024/01/24 05:10:01;;;;;;;;;;;;;;;8.51;100.00;97260.81;5065324;28;19943;-72
2024/01/24 05:12:26;;;;;;;;;;;;;;;8.50;100.00;97267.03;5030951;28;19938;-73
2024/01/24 05:14:53;;;;;;;;;;;;;;;8.50;100.00;97266.22;5065359;28;20030;-72
2024/01/24 05:17:19;;;;;;;;;;;;;;;8.51;100.00;97273.88;5065005;28;19933;-72
2024/01/24 05:19:45;;;;;;;;;;;;;;;8.52;100.00;97278.13;5065782;28;19946;-72
2024/01/24 05:22:11;;;;;;;;;;;;;;;8.56;100.00;97275.13;5065960;28;19938;-76
2024/01/24 05:24:36;;;;;;;;;;;;;;;8.58;100.00;97266.09;5065177;28;20185;-73
2024/01/24 05:27:02;;;;;;;;;;;;;;;8.63;100.00;97276.00;5065416;28;19938;-71
2024/01/24 05:29:28;;;;;;;;;;;;;;;8.67;100.00;97269.41;5065238;28;19941;-71
2024/01/24 05:31:54;;;;;;;;;;;;;;;8.70;100.00;97271.66;5065799;28;19940;-71
2024/01/24 05:34:20;;;;;;;;;;;;;;;8.74;100.00;97288.63;5065392;28;19936;-70
2024/01/24 05:36:46;;;;;;;;;;;;;;;8.79;100.00;97277.59;5064880;28;19961;-71
2024/01/24 05:39:11;;;;;;;;;;;;;;;8.86;100.00;97283.69;5065292;28;20239;-71
2024/01/24 05:41:37;;;;;;;;;;;;;;;8.90;100.00;97264.84;5064805;28;20157;-69
2024/01/24 05:44:03;;;;;;;;;;;;;;;8.94;100.00;97263.47;5047135;28;19932;-72
2024/01/24 05:46:29;;;;;;;;;;;;;;;8.98;100.00;97263.09;5064720;28;19991;-72
2024/01/24 05:48:55;;;;;;;;;;;;;;;8.98;100.00;97258.66;5065206;28;20219;-72
2024/01/24 05:51:21;;;;;;;;;;;;;;;8.99;100.00;97278.59;5064618;28;19941;-72
2024/01/24 05:53:47;;;;;;;;;;;;;;;9.01;100.00;97281.00;5064599;28;20102;-72
2024/01/24 05:56:13;;;;;;;;;;;;;;;9.02;100.00;97283.44;5064562;28;19942;-72
2024/01/24 05:58:39;;;;;;;;;;;;;;;9.02;100.00;97277.41;5064980;28;19961;-69
2024/01/24 06:01:08;;;;;;;;;;;;;;;9.04;100.00;97278.84;5064505;28;19944;-76
2024/01/24 06:03:34;;;;;;;;;;;;;;;9.07;100.00;97260.16;5064379;28;20221;-71
2024/01/24 06:06:01;;;;;;;;;;;;;;;9.11;100.00;97248.31;5064323;28;19937;-71
2024/01/24 06:08:27;;;;;;;;;;;;;;;9.11;100.00;97232.63;5064226;28;19955;-71
2024/01/24 06:10:53;;;;;;;;;;;;;;;9.13;100.00;97222.78;5063876;28;19968;-71
2024/01/24 06:13:18;;;;;;;;;;;;;;;9.14;100.00;97232.22;5064690;28;20242;-71
2024/01/24 06:15:44;;;;;;;;;;;;;;;9.16;100.00;97237.28;5064667;28;19931;-71
2024/01/24 06:18:10;;;;;;;;;;;;;;;9.18;100.00;97222.19;5063913;28;19968;-71
2024/01/24 06:20:36;;;;;;;;;;;;;;;9.19;100.00;97236.09;5064176;28;19943;-69
2024/01/24 06:23:02;;;;;;;;;;;;;;;9.19;100.00;97229.03;5064347;28;19935;-69
2024/01/24 06:25:27;;;;;;;;;;;;;;;9.20;100.00;97237.69;5064569;28;19935;-70
2024/01/24 06:27:53;;;;;;;;;;;;;;;9.18;100.00;97237.91;5064561;28;19937;-69
2024/01/24 06:30:19;;;;;;;;;;;;;;;9.19;100.00;97225.63;5064442;28;20213;-69
2024/01/24 06:32:45;;;;;;;;;;;;;;;9.19;100.00;97226.41;5063968;28;20001;-69
2024/01/24 06:35:11;;;;;;;;;;;;;;;9.20;100.00;97249.00;5063846;28;19942;-69
2024/01/24 06:37:37;;;;;;;;;;;;;;;9.21;100.00;97250.59;5064404;28;19943;-72
2024/01/24 06:40:05;;;;;;;;;;;;;;;9.19;100.00;97247.34;5064404;28;20230;-72
2024/01/24 06:42:31;;;;;;;;;;;;;;;9.21;100.00;97271.53;5063924;28;20137;-72
2024/01/24 06:44:57;;;;;;;;;;;;;;;9.23;100.00;97272.16;5064407;28;19947;-72
2024/01/24 06:47:22;;;;;;;;;;;;;;;9.24;100.00;97275.56;5063884;28;19954;-72
2024/01/24 06:49:48;;;;;;;;;;;;;;;9.26;100.00;97277.03;5063908;28;19938;-72
2024/01/24 06:52:14;;;;;;;;;;;;;;;9.30;100.00;97266.97;5063768;28;19934;-72
2024/01/24 06:54:40;;;;;;;;;;;;;;;9.32;100.00;97257.13;5063824;28;20222;-71
2024/01/24 06:57:06;;;;;;;;;;;;;;;9.34;100.00;97263.81;5064084;28;19934;-77
2024/01/24 06:59:32;;;;;;;;;;;;;;;9.36;100.00;97247.88;5063740;28;19958;-77
2024/01/24 07:01:58;;;;;;;;;;;;;;;9.38;100.00;97251.13;5063777;28;19935;-77
2024/01/24 07:04:25;;;;;;;;;;;;;;;9.39;100.00;97254.59;5063785;28;19948;-77
2024/01/24 07:06:51;;;;;;;;;;;;;;;9.41;100.00;97252.56;5063358;28;19938;-77
2024/01/24 07:09:17;;;;;;;;;;;;;;;9.42;100.00;97257.59;5063692;28;19993;-77
2024/01/24 07:11:43;;;;;;;;;;;;;;;9.44;100.00;97258.22;5064249;28;19943;-77
2024/01/24 07:14:09;;;;;;;;;;;;;;;9.45;100.00;97254.63;5063640;28;19937;-69
2024/01/24 07:16:35;;;;;;;;;;;;;;;9.42;100.00;97241.09;5063645;28;19941;-77
2024/01/24 07:19:01;;;;;;;;;;;;;;;9.43;100.00;97240.91;5063437;28;19962;-77
2024/01/24 07:21:27;;;;;;;;;;;;;;;9.43;100.00;97229.59;5064387;28;19951;-78
2024/01/24 07:23:53;;;;;;;;;;;;;;;9.44;100.00;97226.81;5049678;28;19976;-77
2024/01/24 07:26:18;;;;;;;;;;;;;;;9.47;100.00;97228.22;5067346;28;19943;-79
2024/01/24 07:28:44;;;;;;;;;;;;;;;9.49;100.00;97227.06;5067973;28;19935;-77
2024/01/24 07:31:10;;;;;;;;;;;;;;;9.50;100.00;97223.44;5067326;28;19951;-69
2024/01/24 07:33:38;;;;;;;;;;;;;;;9.53;100.00;97236.16;5049410;28;19942;-72
2024/01/24 07:36:05;;;;;;;;;;;;;;;9.58;100.00;97240.81;5067202;28;19940;-72
2024/01/24 07:38:31;;;;;;;;;;;;;;;9.62;100.00;97249.09;5067064;28;19951;-72
2024/01/24 07:40:57;;;;;;;;;;;;;;;9.64;100.00;97253.13;5067094;28;19935;-72
2024/01/24 07:43:23;;;;;;;;;;;;;;;9.65;100.00;97246.09;5066997;28;20110;-73
2024/01/24 07:45:50;;;;;;;;;;;;;;;9.67;100.00;97259.78;5067806;28;19947;-73
2024/01/24 07:48:16;;;;;;;;;;;;;;;9.70;100.00;97262.03;5067520;28;19947;-72
2024/01/24 07:50:42;;;;;;;;;;;;;;;9.70;100.00;97257.63;5067557;28;19934;-71
2024/01/24 07:53:09;;;;;;;;;;;;;;;9.72;100.00;97260.84;5066991;28;19975;-77
2024/01/24 07:55:34;;;;;;;;;;;;;;;9.72;100.00;97270.50;5067662;28;19938;-78
2024/01/24 07:58:00;;;;;;;;;;;;;;;9.71;100.00;97258.41;5066851;28;20004;-76
2024/01/24 08:00:26;;;;;;;;;;;;;;;9.74;100.00;97265.88;5066745;28;19933;-76
2024/01/24 08:02:52;;;;;;;;;;;;;;;9.75;100.00;97272.75;5067555;28;20164;-77
2024/01/24 08:05:18;;;;;;;;;;;;;;;9.74;100.00;97258.84;5066895;28;19935;-77
2024/01/24 08:07:44;;;;;;;;;;;;;;;9.74;100.00;97260.63;5067311;28;19936;-77
2024/01/24 08:10:13;;;;;;;;;;;;;;;9.72;100.00;97267.88;5066540;28;20218;-78
2024/01/24 08:12:39;;;;;;;;;;;;;;;9.71;100.00;97269.69;5066562;28;19944;-72
2024/01/24 08:15:06;;;;;;;;;;;;;;;9.71;100.00;97280.16;5066429;28;19938;-73
2024/01/24 08:17:32;;;;;;;;;;;;;;;9.72;100.00;97280.97;5066715;28;19966;-72
2024/01/24 08:19:58;;;;;;;;;;;;;;;9.74;100.00;97290.28;5066869;28;20021;-72
2024/01/24 08:22:28;;;;;;;;;;;;;;;9.75;100.00;97285.84;5048469;28;19942;-72
2024/01/24 08:24:54;;;;;;;;;;;;;;;9.78;100.00;97290.69;5066303;28;19930;-73
2024/01/24 08:27:19;;;;;;;;;;;;;;;9.81;100.00;97294.75;5067029;28;19946;-68
2024/01/24 08:29:45;;;;;;;;;;;;;;;9.85;100.00;97295.97;5066667;28;19938;-67
2024/01/24 08:32:11;;;;;;;;;;;;;;;9.87;100.00;97307.06;5066094;28;19955;-69
2024/01/24 08:34:37;;;;;;;;;;;;;;;9.89;100.00;97292.78;5048378;28;19980;-68
2024/01/24 08:37:03;;;;;;;;;;;;;;;9.92;100.00;97291.59;5066827;28;19965;-69
2024/01/24 08:39:29;;;;;;;;;;;;;;;9.94;100.00;97297.44;5065972;28;19952;-68
2024/01/24 08:41:55;;;;;;;;;;;;;;;9.96;100.00;97284.97;5048401;28;20133;-69
2024/01/24 08:44:21;;;;;;;;;;;;;;;9.98;100.00;97290.81;5066700;28;19941;-72
2024/01/24 08:46:48;;;;;;;;;;;;;;;10.00;100.00;97290.63;5066401;28;19937;-71
2024/01/24 08:49:14;;;;;;;;;;;;;;;9.97;100.00;97286.56;5065807;28;19928;-69
2024/01/24 08:51:40;;;;;;;;;;;;;;;9.98;100.00;97287.41;5065780;28;19945;-69
2024/01/24 08:54:06;;;;;;;;;;;;;;;9.99;100.00;97296.88;5065738;28;20128;-69
2024/01/24 08:56:32;;;;;;;;;;;;;;;10.01;100.00;97295.66;5065641;28;20217;-69
2024/01/24 08:58:58;;;;;;;;;;;;;;;10.03;100.00;97290.25;5065529;28;20140;-69
2024/01/24 09:01:23;;;;;;;;;;;;;;;10.04;100.00;97291.88;5066350;28;19942;-69
2024/01/24 09:03:49;;;;;;;;;;;;;;;10.06;100.00;97297.72;5066086;28;19956;-70
2024/01/24 09:06:15;;;;;;;;;;;;;;;10.07;100.00;97312.44;5066018;28;19946;-69
2024/01/24 09:08:43;;;;;;;;;;;;;;;10.06;100.00;97314.25;5066094;28;20261;-69
2024/01/24 09:11:09;;;;;;;;;;;;;;;10.06;100.00;97313.44;5065931;28;19939;-69
2024/01/24 09:13:35;;;;;;;;;;;;;;;10.04;100.00;97307.59;5065901;28;19941;-69
2024/01/24 09:16:01;;;;;;;;;;;;;;;10.05;100.00;97304.75;5065258;28;19942;-69
2024/01/24 09:18:27;;;;;;;;;;;;;;;10.06;100.00;97310.84;5065055;28;19996;-69
2024/01/24 09:20:53;;;;;;;;;;;;;;;10.04;100.00;97321.50;5065980;28;20232;-70
2024/01/24 09:23:19;;;;;;;;;;;;;;;10.04;100.00;97307.59;5066002;28;19940;-68
2024/01/24 09:25:45;;;;;;;;;;;;;;;10.03;100.00;97322.50;5065127;28;19947;-72
2024/01/24 09:28:10;;;;;;;;;;;;;;;10.03;100.00;97319.88;5047391;28;19946;-72
2024/01/24 09:30:39;;;;;;;;;;;;;;;10.02;100.00;97320.88;5065080;28;19935;-72
2024/01/24 09:33:05;;;;;;;;;;;;;;;10.03;100.00;97340.84;5065578;28;19940;-72
2024/01/24 09:35:31;;;;;;;;;;;;;;;10.02;100.00;97333.97;5047084;28;19940;-70
2024/01/24 09:37:57;;;;;;;;;;;;;;;10.03;100.00;97338.22;5064964;28;19933;-72
2024/01/24 09:40:23;;;;;;;;;;;;;;;10.04;100.00;97342.47;5065614;28;20151;-70
2024/01/24 09:42:48;;;;;;;;;;;;;;;10.05;100.00;97333.59;5064832;28;20229;-70
2024/01/24 09:45:16;;;;;;;;;;;;;;;10.05;100.00;97332.78;5064168;28;20225;-70
2024/01/24 09:47:43;;;;;;;;;;;;;;;10.06;100.00;97322.13;5047099;28;19944;-70
2024/01/24 09:50:09;;;;;;;;;;;;;;;10.07;100.00;97323.72;5065312;28;19936;-70
2024/01/24 09:52:35;;;;;;;;;;;;;;;10.07;100.00;97315.06;5064762;28;20219;-68
2024/01/24 09:55:04;;;;;;;;;;;;;;;10.08;100.00;97317.50;5047485;28;19939;-69
2024/01/24 09:57:31;;;;;;;;;;;;;;;10.07;100.00;97310.63;5046868;28;20039;-71
2024/01/24 09:59:57;;;;;;;;;;;;;;;10.07;100.00;97317.69;5064508;28;20262;-72
2024/01/24 10:02:25;;;;;;;;;;;;;;;10.05;100.00;97323.09;5047632;28;19935;-72
2024/01/24 10:04:52;;;;;;;;;;;;;;;10.05;100.00;97340.66;5064486;28;19948;-72
2024/01/24 10:07:18;;;;;;;;;;;;;;;10.02;100.00;97339.22;5047061;28;20225;-72
2024/01/24 10:09:46;;;;;;;;;;;;;;;10.02;100.00;97354.94;5064240;28;19957;-72
2024/01/24 10:12:11;;;;;;;;;;;;;;;10.03;100.00;97351.31;5064818;28;19939;-72
2024/01/24 10:14:40;;;;;;;;;;;;;;;10.10;100.00;97328.59;5064281;28;19937;-72
2024/01/24 10:17:09;;;;;;;;;;;;;;;10.21;100.00;97329.06;5064730;28;19942;-77
2024/01/24 10:19:36;;;;;;;;;;;;;;;10.30;100.00;97328.72;5064869;28;19959;-71
2024/01/24 10:22:03;;;;;;;;;;;;;;;10.33;100.00;97317.03;5046278;28;19941;-70
2024/01/24 10:24:31;;;;;;;;;;;;;;;10.33;100.00;97306.53;5064046;28;20233;-71
2024/01/24 10:26:57;;;;;;;;;;;;;;;10.34;100.00;97313.41;5046259;28;19940;-71
2024/01/24 10:29:23;;;;;;;;;;;;;;;10.34;100.00;97308.97;5064039;28;19942;-71
2024/01/24 10:31:56;;;;;;;;;;;;;;;10.35;100.00;97315.03;5064316;28;19938;-71
2024/01/24 10:34:28;;;;;;;;;;;;;;;10.33;100.00;97320.47;5064017;28;19935;-71
2024/01/24 10:36:54;;;;;;;;;;;;;;;10.33;100.00;97327.50;5064457;28;19936;-72
2024/01/24 10:39:22;;;;;;;;;;;;;;;10.34;100.00;97326.53;5046948;28;19961;-70
2024/01/24 10:41:50;;;;;;;;;;;;;;;10.40;100.00;97338.06;5063933;28;19936;-69
2024/01/24 10:44:16;;;;;;;;;;;;;;;10.42;100.00;97334.22;5064653;28;19936;-70
2024/01/24 10:46:42;;;;;;;;;;;;;;;10.46;100.00;97334.66;5063857;28;19936;-69
2024/01/24 10:49:15;;;;;;;;;;;;;;;10.47;100.00;97341.50;5064334;28;19945;-70
2024/01/24 10:51:43;;;;;;;;;;;;;;;10.47;100.00;97325.78;5022949;28;19938;-70
2024/01/24 10:54:09;;;;;;;;;;;;;;;10.47;100.00;97328.41;5022827;28;20243;-78
2024/01/24 10:56:36;;;;;;;;;;;;;;;10.47;100.00;97323.16;5023874;28;20007;-71
2024/01/24 10:59:03;;;;;;;;;;;;;;;10.46;100.00;97326.78;5026582;28;20141;-71
2024/01/24 11:01:29;;;;;;;;;;;;;;;10.44;100.00;97328.81;5026531;28;20149;-71
2024/01/24 11:03:56;;;;;;;;;;;;;;;10.41;100.00;97335.22;5026336;28;19936;-71
2024/01/24 11:06:24;;;;;;;;;;;;;;;10.41;100.00;97321.31;5026298;28;19933;-71
2024/01/24 11:09:02;;;;;;;;;;;;;;;10.42;100.00;97328.19;5026134;28;20265;-71
2024/01/24 11:11:31;;;;;;;;;;;;;;;10.46;100.00;97319.72;5026153;28;19952;-78
2024/01/24 11:13:57;;;;;;;;;;;;;;;10.55;100.00;97315.13;5026173;28;19940;-70
2024/01/24 11:16:30;;;;;;;;;;;;;;;10.74;100.00;97306.50;5026118;28;19958;-71
2024/01/24 11:19:17;;;;;;;;;;;;;;;10.89;100.00;97318.66;5009438;28;19960;-71
2024/01/24 11:21:43;;;;;;;;;;;;;;;10.99;100.00;97308.59;5030396;28;19948;-70
2024/01/24 11:24:08;;;;;;;;;;;;;;;11.05;100.00;97307.00;5067422;28;19962;-71
2024/01/24 11:26:34;;;;;;;;;;;;;;;11.10;100.00;97308.00;5067486;28;19941;-71
2024/01/24 11:29:04;;;;;;;;;;;;;;;11.15;100.00;97310.03;5050462;28;20042;-71
2024/01/24 11:31:37;;;;;;;;;;;;;;;11.17;100.00;97308.81;5049907;28;19937;-71
2024/01/24 11:34:12;;;;;;;;;;;;;;;11.18;100.00;97299.94;5049677;28;20128;-78
2024/01/24 11:36:50;;;;;;;;;;;;;;;11.15;100.00;97302.16;5067264;28;19944;-77
2024/01/24 11:39:28;;;;;;;;;;;;;;;11.11;100.00;97303.56;5067097;28;19954;-77
2024/01/24 11:41:54;;;;;;;;;;;;;;;11.05;100.00;97302.53;5067725;28;20255;-77
2024/01/24 11:44:20;;;;;;;;;;;;;;;10.99;100.00;97303.34;5067050;28;19929;-78
2024/01/24 11:46:46;;;;;;;;;;;;;;;10.93;100.00;97299.69;5067108;28;19978;-77
2024/01/24 11:49:12;;;;;;;;;;;;;;;10.88;100.00;97293.44;5067498;28;19942;-69
2024/01/24 11:51:37;;;;;;;;;;;;;;;10.83;100.00;97298.44;5049014;28;20217;-68
2024/01/24 11:54:03;;;;;;;;;;;;;;;10.79;100.00;97307.72;5067597;28;19928;-68
2024/01/24 11:56:29;;;;;;;;;;;;;;;10.73;100.00;97304.91;5066694;28;20007;-68
2024/01/24 11:58:56;;;;;;;;;;;;;;;10.69;100.00;97308.13;5066583;28;20012;-68
2024/01/24 12:01:22;;;;;;;;;;;;;;;10.64;100.00;97306.06;5067589;28;19946;-68
2024/01/24 12:03:48;;;;;;;;;;;;;;;10.61;100.00;97301.22;5067333;28;19935;-68
2024/01/24 12:06:14;;;;;;;;;;;;;;;10.59;100.00;97294.56;5066718;28;19937;-68
2024/01/24 12:08:41;;;;;;;;;;;;;;;10.56;100.00;97293.13;5066675;28;20309;-73
2024/01/24 12:11:08;;;;;;;;;;;;;;;10.53;100.00;97293.53;5067161;28;19934;-70
2024/01/24 12:13:34;;;;;;;;;;;;;;;10.51;100.00;97291.09;5066612;28;19936;-69
2024/01/24 12:16:01;;;;;;;;;;;;;;;10.50;100.00;97301.78;5067089;28;19943;-69
2024/01/24 12:18:27;;;;;;;;;;;;;;;10.48;100.00;97309.06;5066413;28;19973;-69
2024/01/24 12:20:55;;;;;;;;;;;;;;;10.46;100.00;97306.63;5065957;28;20356;-68
2024/01/24 12:23:21;;;;;;;;;;;;;;;10.46;100.00;97316.31;5066951;28;19953;-69
2024/01/24 12:25:47;;;;;;;;;;;;;;;10.45;100.00;97323.34;5066426;28;19940;-71
2024/01/24 12:28:13;;;;;;;;;;;;;;;10.46;100.00;97321.56;5066303;28;19976;-70
2024/01/24 12:30:43;;;;;;;;;;;;;;;10.46;100.00;97327.59;5066293;28;19941;-70
2024/01/24 12:33:10;;;;;;;;;;;;;;;10.47;100.00;97338.88;5066194;28;19962;-71
2024/01/24 12:35:36;;;;;;;;;;;;;;;10.48;100.00;97332.66;5066784;28;19937;-69
2024/01/24 12:38:03;;;;;;;;;;;;;;;10.46;100.00;97329.41;5066706;28;19962;-70